Dirección General De Aeronáutica Civil

Dirección Meteorológica de Chile - Servicios Climáticos

Informe General de Control de Calidad de la Estación

Listado de niveles de control de calidad para algunos parámetros
Estación Coltauco (340130)
Fecha de Revisión de los datos :

Elementos

Registros Niveles de Control Total
Nivel 0 Nivel 1 Nivel 2 Nivel 3 Errores Porcentaje
01 Temperatura del Aire Seco 124.629 0 . 106 0.09 % 0 . 0 . 106 0.09 %
02 Temperatura de Rocío 124.650 0 . 0 . 0 . 0 . 0 0.00 %
03 Humedad Relativa del Aire 124.657 0 . 0 . 0 . 0 . 0 0.00 %
04 Temperatura Máxima PM 1.314 0 . 0 . 0 . 0 . 0 0.00 %
05 Temperatura Mínima AM 1.305 0 . 0 . 0 . 0 . 0 0.00 %
06 Agua Caida, Acumulada 6 Horas 21.691 0 . 0 . 0 . 0 . 0 0.00 %
07 Presión Atm. a Nivel de Estación (QFE) 124.243 0 . 0 . 0 . 0 . 0 0.00 %
08 Presión Atm. a Nivel Medio del Mar (QFF) 31.204 0 . 0 . 0 . 0 . 0 0.00 %
09 Presión Atm. Estándar OACI (QNH) 31.205 0 . 0 . 0 . 0 . 0 0.00 %

Totales

584.898 . 0.0000 % . 0.0181 % . 0.0000 % . 0.0000 % 106 0.0181 %

Detalle de Errores Encontrados

Nivel Fecha del Dato Descripción Información Error Fecha Ingreso
1 2015-06-07 10:00:00 Ts debe ser mayor o igual a Td Ts=8.5 - Td=8.6 2023-10-28 00:26:00
1 2015-06-07 14:00:00 Ts debe ser mayor o igual a Td Ts=10.8 - Td=10.9 2023-10-28 00:26:00
1 2015-06-08 13:00:00 Ts debe ser mayor o igual a Td Ts=7.1 - Td=7.2 2023-10-28 00:26:00
1 2015-07-29 13:00:00 Ts debe ser mayor o igual a Td Ts=7.5 - Td=7.6 2023-10-28 00:27:00
1 2015-08-03 09:00:00 Ts debe ser mayor o igual a Td Ts=7.3 - Td=7.4 2023-10-28 00:27:00
1 2015-08-03 10:00:00 Ts debe ser mayor o igual a Td Ts=5.7 - Td=5.8 2023-10-28 00:27:00
1 2015-08-07 09:00:00 Ts debe ser mayor o igual a Td Ts=8.7 - Td=8.8 2023-10-28 00:27:00
1 2015-08-07 10:00:00 Ts debe ser mayor o igual a Td Ts=8.4 - Td=8.5 2023-10-28 00:27:00
1 2015-09-08 08:00:00 Ts debe ser mayor o igual a Td Ts=8.1 - Td=8.2 2023-10-28 00:27:00
1 2015-09-08 10:00:00 Ts debe ser mayor o igual a Td Ts=9.3 - Td=9.4 2023-10-28 00:27:00
1 2016-04-15 06:00:00 Ts debe ser mayor o igual a Td Ts=13.6 - Td=13.7 2023-10-28 00:31:00
1 2016-04-15 11:00:00 Ts debe ser mayor o igual a Td Ts=13.8 - Td=13.9 2023-10-28 00:31:00
1 2016-04-15 17:00:00 Ts debe ser mayor o igual a Td Ts=15.9 - Td=16.0 2023-10-28 00:31:00
1 2016-04-15 18:00:00 Ts debe ser mayor o igual a Td Ts=16.1 - Td=16.2 2023-10-28 00:31:00
1 2016-04-15 19:00:00 Ts debe ser mayor o igual a Td Ts=15.9 - Td=16.0 2023-10-28 00:31:00
1 2016-04-15 23:00:00 Ts debe ser mayor o igual a Td Ts=14.9 - Td=15.0 2023-10-28 00:31:00
1 2016-04-16 01:00:00 Ts debe ser mayor o igual a Td Ts=14.5 - Td=14.6 2023-10-28 00:31:00
1 2016-04-16 13:00:00 Ts debe ser mayor o igual a Td Ts=15.0 - Td=15.1 2023-10-28 00:31:00
1 2016-04-16 16:00:00 Ts debe ser mayor o igual a Td Ts=17.4 - Td=17.5 2023-10-28 00:31:00
1 2016-04-24 12:00:00 Ts debe ser mayor o igual a Td Ts=9.4 - Td=9.5 2023-10-28 00:31:00
1 2016-05-09 13:00:00 Ts debe ser mayor o igual a Td Ts=10.4 - Td=10.5 2023-10-28 00:32:00
1 2016-05-15 14:00:00 Ts debe ser mayor o igual a Td Ts=12.3 - Td=12.4 2023-10-28 00:32:00
1 2016-05-16 11:00:00 Ts debe ser mayor o igual a Td Ts=5.6 - Td=5.7 2023-10-28 00:32:00
1 2016-05-18 09:00:00 Ts debe ser mayor o igual a Td Ts=10.6 - Td=10.7 2023-10-28 00:32:00
1 2016-05-18 12:00:00 Ts debe ser mayor o igual a Td Ts=10.8 - Td=10.9 2023-10-28 00:32:00
1 2016-05-26 14:00:00 Ts debe ser mayor o igual a Td Ts=9.3 - Td=9.4 2023-10-28 00:32:00
1 2016-05-28 13:00:00 Ts debe ser mayor o igual a Td Ts=8.3 - Td=8.4 2023-10-28 00:32:00
1 2016-06-02 13:00:00 Ts debe ser mayor o igual a Td Ts=6.9 - Td=7.0 2023-10-28 00:32:00
1 2016-06-02 14:00:00 Ts debe ser mayor o igual a Td Ts=8.7 - Td=8.8 2023-10-28 00:32:00
1 2016-06-03 05:00:00 Ts debe ser mayor o igual a Td Ts=9.4 - Td=9.5 2023-10-28 00:32:00
1 2016-06-03 10:00:00 Ts debe ser mayor o igual a Td Ts=8.9 - Td=9.0 2023-10-28 00:32:00
1 2016-06-04 05:00:00 Ts debe ser mayor o igual a Td Ts=9.2 - Td=9.3 2023-10-28 00:32:00
1 2016-06-04 06:00:00 Ts debe ser mayor o igual a Td Ts=9.1 - Td=9.2 2023-10-28 00:32:00
1 2016-06-04 08:00:00 Ts debe ser mayor o igual a Td Ts=8.4 - Td=8.5 2023-10-28 00:32:00
1 2016-06-04 14:00:00 Ts debe ser mayor o igual a Td Ts=8.1 - Td=8.2 2023-10-28 00:32:00
1 2016-06-08 15:00:00 Ts debe ser mayor o igual a Td Ts=6.9 - Td=7.0 2023-10-28 00:32:00
1 2016-07-01 18:00:00 Ts debe ser mayor o igual a Td Ts=7.8 - Td=7.9 2023-10-28 00:33:00
1 2016-07-02 07:00:00 Ts debe ser mayor o igual a Td Ts=4.8 - Td=4.9 2023-10-28 00:33:00
1 2016-07-03 15:00:00 Ts debe ser mayor o igual a Td Ts=6.9 - Td=7.0 2023-10-28 00:33:00
1 2016-07-09 14:00:00 Ts debe ser mayor o igual a Td Ts=5.7 - Td=5.8 2023-10-28 00:33:00
1 2016-07-18 14:00:00 Ts debe ser mayor o igual a Td Ts=5.7 - Td=5.8 2023-10-28 00:33:00
1 2017-05-08 13:00:00 Ts debe ser mayor o igual a Td Ts=11.4 - Td=11.5 2023-10-28 00:37:00
1 2017-06-10 16:00:00 Ts debe ser mayor o igual a Td Ts=6.9 - Td=7.0 2023-10-28 00:38:00
1 2017-06-23 17:00:00 Ts debe ser mayor o igual a Td Ts=11.4 - Td=11.5 2023-10-28 00:38:00
1 2017-06-24 07:00:00 Ts debe ser mayor o igual a Td Ts=8.5 - Td=8.6 2023-10-28 00:38:00
1 2017-06-27 10:00:00 Ts debe ser mayor o igual a Td Ts=10.3 - Td=10.4 2023-10-28 00:38:00
1 2017-06-28 17:00:00 Ts debe ser mayor o igual a Td Ts=10.7 - Td=10.8 2023-10-28 00:38:00
1 2017-07-03 00:00:00 Ts debe ser mayor o igual a Td Ts=8.1 - Td=8.2 2023-10-28 00:38:00
1 2017-07-03 03:00:00 Ts debe ser mayor o igual a Td Ts=7.8 - Td=7.9 2023-10-28 00:38:00
1 2017-07-03 06:00:00 Ts debe ser mayor o igual a Td Ts=8.5 - Td=8.6 2023-10-28 00:38:00
1 2017-07-03 10:00:00 Ts debe ser mayor o igual a Td Ts=8.6 - Td=8.7 2023-10-28 00:38:00
1 2017-08-19 11:00:00 Ts debe ser mayor o igual a Td Ts=8.6 - Td=8.7 2023-10-28 00:39:00
1 2017-08-19 13:00:00 Ts debe ser mayor o igual a Td Ts=9.4 - Td=9.5 2023-10-28 00:39:00
1 2018-06-30 17:00:00 Ts debe ser mayor o igual a Td Ts=9.0 - Td=9.1 2023-10-28 00:44:00
1 2018-07-10 13:00:00 Ts debe ser mayor o igual a Td Ts=7.4 - Td=7.5 2023-10-28 00:44:00
1 2018-07-10 17:00:00 Ts debe ser mayor o igual a Td Ts=8.2 - Td=8.3 2023-10-28 00:44:00
1 2019-10-01 10:00:00 Ts debe ser mayor o igual a Td Ts=5.2 - Td=5.5 2023-10-28 00:51:00
1 2019-10-01 12:00:00 Ts debe ser mayor o igual a Td Ts=6.0 - Td=6.4 2023-10-28 00:51:00
1 2019-10-01 13:00:00 Ts debe ser mayor o igual a Td Ts=6.7 - Td=7.5 2023-10-28 00:51:00
1 2019-10-02 12:00:00 Ts debe ser mayor o igual a Td Ts=1.5 - Td=3.2 2023-10-28 00:51:00
1 2019-10-02 13:00:00 Ts debe ser mayor o igual a Td Ts=4.0 - Td=5.8 2023-10-28 00:51:00
1 2019-10-03 12:00:00 Ts debe ser mayor o igual a Td Ts=1.9 - Td=3.6 2023-10-28 00:51:00
1 2019-10-03 13:00:00 Ts debe ser mayor o igual a Td Ts=4.7 - Td=6.2 2023-10-28 00:51:00
1 2019-10-04 12:00:00 Ts debe ser mayor o igual a Td Ts=1.3 - Td=3.5 2023-10-28 00:51:00
1 2019-10-04 13:00:00 Ts debe ser mayor o igual a Td Ts=4.3 - Td=5.7 2023-10-28 00:51:00
1 2019-10-08 12:00:00 Ts debe ser mayor o igual a Td Ts=6.8 - Td=7.7 2023-10-28 00:51:00
1 2019-10-12 12:00:00 Ts debe ser mayor o igual a Td Ts=10.3 - Td=10.5 2023-10-28 00:51:00
1 2019-10-15 12:00:00 Ts debe ser mayor o igual a Td Ts=6.9 - Td=10.9 2023-10-28 00:51:00
1 2019-10-16 12:00:00 Ts debe ser mayor o igual a Td Ts=8.4 - Td=9.2 2023-10-28 00:51:00
1 2019-10-18 09:00:00 Ts debe ser mayor o igual a Td Ts=6.4 - Td=6.7 2023-10-28 00:51:00
1 2019-10-18 12:00:00 Ts debe ser mayor o igual a Td Ts=6.2 - Td=8.9 2023-10-28 00:51:00
1 2019-10-20 13:00:00 Ts debe ser mayor o igual a Td Ts=10.1 - Td=10.4 2023-10-28 00:51:00
1 2019-10-21 12:00:00 Ts debe ser mayor o igual a Td Ts=7.0 - Td=9.0 2023-10-28 00:51:00
1 2019-10-22 11:00:00 Ts debe ser mayor o igual a Td Ts=4.4 - Td=4.6 2023-10-28 00:51:00
1 2019-10-22 12:00:00 Ts debe ser mayor o igual a Td Ts=6.5 - Td=7.4 2023-10-28 00:51:00
1 2019-10-23 12:00:00 Ts debe ser mayor o igual a Td Ts=6.9 - Td=8.1 2023-10-28 00:51:00
1 2019-10-25 12:00:00 Ts debe ser mayor o igual a Td Ts=8.2 - Td=9.6 2023-10-28 00:51:00
1 2019-10-29 11:00:00 Ts debe ser mayor o igual a Td Ts=2.6 - Td=3.3 2023-10-28 00:51:00
1 2019-10-30 12:00:00 Ts debe ser mayor o igual a Td Ts=6.3 - Td=7.6 2023-10-28 00:51:00
1 2019-11-02 11:00:00 Ts debe ser mayor o igual a Td Ts=7.1 - Td=7.6 2023-10-28 00:51:00
1 2019-11-02 12:00:00 Ts debe ser mayor o igual a Td Ts=8.5 - Td=10.0 2023-10-28 00:51:00
1 2019-11-03 11:00:00 Ts debe ser mayor o igual a Td Ts=5.9 - Td=6.1 2023-10-28 00:51:00
1 2019-11-03 12:00:00 Ts debe ser mayor o igual a Td Ts=8.1 - Td=9.0 2023-10-28 00:51:00
1 2019-11-05 12:00:00 Ts debe ser mayor o igual a Td Ts=9.1 - Td=9.8 2023-10-28 00:51:00
1 2019-11-09 11:00:00 Ts debe ser mayor o igual a Td Ts=8.3 - Td=9.0 2023-10-28 00:52:00
1 2019-11-09 12:00:00 Ts debe ser mayor o igual a Td Ts=10.3 - Td=12.2 2023-10-28 00:52:00
1 2019-11-11 11:00:00 Ts debe ser mayor o igual a Td Ts=9.4 - Td=10.3 2023-10-28 00:52:00
1 2019-11-11 12:00:00 Ts debe ser mayor o igual a Td Ts=12.1 - Td=13.1 2023-10-28 00:52:00
1 2019-11-12 11:00:00 Ts debe ser mayor o igual a Td Ts=10.6 - Td=11.2 2023-10-28 00:52:00
1 2019-11-12 12:00:00 Ts debe ser mayor o igual a Td Ts=12.1 - Td=13.2 2023-10-28 00:52:00
1 2019-11-13 12:00:00 Ts debe ser mayor o igual a Td Ts=12.3 - Td=13.5 2023-10-28 00:52:00
1 2019-11-13 13:00:00 Ts debe ser mayor o igual a Td Ts=14.5 - Td=15.1 2023-10-28 00:52:00
1 2019-11-22 11:00:00 Ts debe ser mayor o igual a Td Ts=10.6 - Td=11.1 2023-10-28 00:52:00
1 2019-11-22 12:00:00 Ts debe ser mayor o igual a Td Ts=11.9 - Td=13.3 2023-10-28 00:52:00
1 2019-11-23 11:00:00 Ts debe ser mayor o igual a Td Ts=9.6 - Td=10.9 2023-10-28 00:52:00
1 2019-11-23 12:00:00 Ts debe ser mayor o igual a Td Ts=11.6 - Td=13.1 2023-10-28 00:52:00
1 2019-12-02 12:00:00 Ts debe ser mayor o igual a Td Ts=11.9 - Td=12.5 2023-10-28 00:52:00
1 2019-12-07 11:00:00 Ts debe ser mayor o igual a Td Ts=9.4 - Td=9.5 2023-10-28 00:52:00
1 2019-12-07 12:00:00 Ts debe ser mayor o igual a Td Ts=10.4 - Td=11.1 2023-10-28 00:52:00
1 2019-12-07 13:00:00 Ts debe ser mayor o igual a Td Ts=13.0 - Td=13.2 2023-10-28 00:52:00
1 2019-12-08 11:00:00 Ts debe ser mayor o igual a Td Ts=9.8 - Td=9.9 2023-10-28 00:52:00
1 2019-12-08 12:00:00 Ts debe ser mayor o igual a Td Ts=10.8 - Td=11.7 2023-10-28 00:52:00
1 2019-12-09 11:00:00 Ts debe ser mayor o igual a Td Ts=10.9 - Td=11.0 2023-10-28 00:52:00
1 2019-12-09 12:00:00 Ts debe ser mayor o igual a Td Ts=11.8 - Td=12.8 2023-10-28 00:52:00
1 2019-12-10 11:00:00 Ts debe ser mayor o igual a Td Ts=10.1 - Td=10.4 2023-10-28 00:52:00
1 2019-12-10 12:00:00 Ts debe ser mayor o igual a Td Ts=11.2 - Td=12.4 2023-10-28 00:52:00
Errores del Nivel 106
Informe generado el 05-03-2024 11:19
Requerimiento: RE6001